Time;durP1;ratioP1;P1;durP2;ratioP2;P2;SDS_P1;SDS_P2;PMS_P1;PMS_P2;Temp;Humidity;BMP_temperature;BMP_pressure;BME280_temperature;BME280_humidity;BME280_pressure;Samples;Min_cycle;Max_cycle;Signal;HPM_P1;HPM_P2
2023/03/19 00:01:05;;;;;;;;;;;11.20;99.90;;;;;;5031118;28;19913;-59
2023/03/19 00:03:31;;;;;;;;;;;11.30;99.90;;;;;;5032467;28;19917;-60
2023/03/19 00:05:57;;;;;;;;;;;11.30;99.90;;;;;;5028468;28;19917;-60
2023/03/19 00:08:22;;;;;;;;;;;11.20;99.90;;;;;;5029482;28;20386;-62
2023/03/19 00:10:48;;;;;;;;;;;11.20;99.90;;;;;;5026208;28;19913;-62
2023/03/19 00:13:13;;;;;;;;;;;11.20;99.90;;;;;;5026572;28;19913;-62
2023/03/19 00:15:39;;;;;;;;;;;11.20;99.90;;;;;;5028805;28;19949;-61
2023/03/19 00:18:05;;;;;;;;;;;11.20;99.90;;;;;;5027770;28;19946;-62
2023/03/19 00:20:30;;;;;;;;;;;11.10;99.90;;;;;;5029526;28;19968;-63
2023/03/19 00:22:56;;;;;;;;;;;11.00;99.90;;;;;;5028802;28;20359;-61
2023/03/19 00:25:21;;;;;;;;;;;11.00;99.90;;;;;;5027339;28;20263;-62
2023/03/19 00:27:47;;;;;;;;;;;10.90;99.90;;;;;;5029348;28;19978;-62
2023/03/19 00:30:13;;;;;;;;;;;10.80;99.90;;;;;;5031223;28;19941;-61
2023/03/19 00:32:39;;;;;;;;;;;10.80;99.90;;;;;;5023269;28;19921;-59
2023/03/19 00:35:05;;;;;;;;;;;10.70;99.90;;;;;;5029819;28;19913;-60
2023/03/19 00:37:31;;;;;;;;;;;10.60;99.90;;;;;;5029841;28;19909;-59
2023/03/19 00:39:57;;;;;;;;;;;10.50;99.90;;;;;;5032020;28;19946;-62
2023/03/19 00:42:22;;;;;;;;;;;10.50;99.90;;;;;;5029149;28;19963;-62
2023/03/19 00:44:48;;;;;;;;;;;10.50;99.90;;;;;;5029457;28;19913;-62
2023/03/19 00:47:13;;;;;;;;;;;10.50;99.90;;;;;;5031386;28;19917;-61
2023/03/19 00:49:39;;;;;;;;;;;10.50;99.90;;;;;;5027232;28;19955;-61
2023/03/19 00:52:04;;;;;;;;;;;10.50;99.90;;;;;;5028695;28;19943;-62
2023/03/19 00:54:31;;;;;;;;;;;10.30;99.90;;;;;;5031260;28;20393;-59
2023/03/19 00:56:56;;;;;;;;;;;10.20;99.90;;;;;;5029102;28;19944;-63
2023/03/19 00:59:24;;;;;;;;;;;10.30;99.90;;;;;;5030101;28;20626;-61
2023/03/19 01:01:50;;;;;;;;;;;10.20;99.90;;;;;;5031895;28;19913;-62
2023/03/19 01:04:16;;;;;;;;;;;10.20;99.90;;;;;;5032358;28;19924;-58
2023/03/19 01:06:42;;;;;;;;;;;10.10;99.90;;;;;;5029898;28;20366;-62
2023/03/19 01:09:08;;;;;;;;;;;10.10;99.90;;;;;;5035431;28;19948;-61
2023/03/19 01:11:33;;;;;;;;;;;10.00;99.90;;;;;;5028513;28;19924;-59
2023/03/19 01:13:59;;;;;;;;;;;9.80;99.90;;;;;;5032665;28;19944;-57
2023/03/19 01:16:24;;;;;;;;;;;9.70;99.90;;;;;;5030764;28;19917;-58
2023/03/19 01:18:50;;;;;;;;;;;9.60;99.90;;;;;;5030994;28;19909;-59
2023/03/19 01:21:16;;;;;;;;;;;9.60;99.90;;;;;;5027565;28;19913;-61
2023/03/19 01:23:42;;;;;;;;;;;9.60;99.90;;;;;;5029414;28;20363;-60
2023/03/19 01:26:07;;;;;;;;;;;9.50;99.90;;;;;;5028828;28;19913;-58
2023/03/19 01:28:33;;;;;;;;;;;9.50;99.90;;;;;;5027574;28;19913;-60
2023/03/19 01:31:05;;;;;;;;;;;9.50;99.90;;;;;;5015125;28;19917;-54
2023/03/19 01:33:30;;;;;;;;;;;9.40;99.90;;;;;;5031841;28;20334;-59
2023/03/19 01:35:58;;;;;;;;;;;9.40;99.90;;;;;;5034519;28;19917;-60
2023/03/19 01:38:24;;;;;;;;;;;9.40;99.90;;;;;;5031186;28;19915;-61
2023/03/19 01:40:49;;;;;;;;;;;9.30;99.90;;;;;;5033953;28;19920;-60
2023/03/19 01:43:17;;;;;;;;;;;9.10;99.90;;;;;;5030808;28;20758;-59
2023/03/19 01:45:43;;;;;;;;;;;9.00;99.90;;;;;;5032846;28;19921;-62
2023/03/19 01:48:18;;;;;;;;;;;9.00;99.90;;;;;;5032347;28;19923;-57
2023/03/19 01:50:44;;;;;;;;;;;9.00;99.90;;;;;;5027451;28;19913;-60
2023/03/19 01:53:11;;;;;;;;;;;9.10;99.90;;;;;;5032005;28;19913;-58
2023/03/19 01:55:36;;;;;;;;;;;9.20;99.90;;;;;;5034571;28;19909;-62
2023/03/19 01:58:05;;;;;;;;;;;9.10;99.90;;;;;;5031683;28;19928;-62
2023/03/19 02:00:32;;;;;;;;;;;9.10;99.90;;;;;;5031113;28;19916;-60
2023/03/19 02:02:59;;;;;;;;;;;9.10;99.90;;;;;;5029856;28;19917;-59
2023/03/19 02:05:25;;;;;;;;;;;9.10;99.90;;;;;;5036134;28;19970;-58
2023/03/19 02:07:55;;;;;;;;;;;9.20;99.90;;;;;;5031190;28;20385;-61
2023/03/19 02:10:21;;;;;;;;;;;9.20;99.90;;;;;;5030536;28;19917;-61
2023/03/19 02:12:47;;;;;;;;;;;9.20;99.90;;;;;;5036938;28;19918;-59
2023/03/19 02:15:13;;;;;;;;;;;9.20;99.90;;;;;;5029093;28;19958;-59
2023/03/19 02:17:39;;;;;;;;;;;9.10;99.90;;;;;;5033766;28;20071;-60
2023/03/19 02:20:26;;;;;;;;;;;9.10;99.90;;;;;;5031633;28;19917;-60
2023/03/19 02:23:11;;;;;;;;;;;9.10;99.90;;;;;;5030456;28;20560;-59
2023/03/19 02:25:43;;;;;;;;;;;9.10;99.90;;;;;;4999961;28;20402;-61
2023/03/19 02:28:09;;;;;;;;;;;9.10;99.90;;;;;;5030444;28;19914;-61
2023/03/19 02:30:35;;;;;;;;;;;9.20;99.90;;;;;;5029366;28;20445;-59
2023/03/19 02:33:01;;;;;;;;;;;9.20;99.90;;;;;;5033633;28;19913;-61
2023/03/19 02:35:28;;;;;;;;;;;9.30;99.90;;;;;;5031306;28;19913;-58
2023/03/19 02:37:53;;;;;;;;;;;9.40;99.90;;;;;;5033396;28;19936;-59
2023/03/19 02:40:25;;;;;;;;;;;9.40;99.90;;;;;;5033486;28;20375;-60
2023/03/19 02:42:50;;;;;;;;;;;9.40;99.90;;;;;;5035734;28;19920;-62
2023/03/19 02:45:16;;;;;;;;;;;9.50;99.90;;;;;;5030638;28;19917;-62
2023/03/19 02:47:41;;;;;;;;;;;9.50;99.90;;;;;;5027173;28;19924;-60
2023/03/19 02:50:07;;;;;;;;;;;9.50;99.90;;;;;;5029307;28;20279;-60
2023/03/19 02:52:33;;;;;;;;;;;9.50;99.90;;;;;;5028522;28;19917;-61
2023/03/19 02:54:58;;;;;;;;;;;9.50;99.90;;;;;;5033522;28;19921;-61
2023/03/19 02:57:24;;;;;;;;;;;9.60;99.90;;;;;;5030154;28;19943;-61
2023/03/19 02:59:49;;;;;;;;;;;9.60;99.90;;;;;;5030696;28;19940;-62
2023/03/19 03:02:15;;;;;;;;;;;9.60;99.90;;;;;;5031075;28;20430;-59
2023/03/19 03:04:40;;;;;;;;;;;9.60;99.90;;;;;;5027535;28;19971;-56
2023/03/19 03:07:07;;;;;;;;;;;9.70;99.90;;;;;;5038194;28;20347;-60
2023/03/19 03:09:33;;;;;;;;;;;9.70;99.90;;;;;;5033215;28;19913;-59
2023/03/19 03:11:58;;;;;;;;;;;9.70;99.90;;;;;;5033484;28;19913;-59
2023/03/19 03:14:24;;;;;;;;;;;9.80;99.90;;;;;;5031739;28;20283;-59
2023/03/19 03:16:49;;;;;;;;;;;9.70;99.90;;;;;;5034740;28;19919;-60
2023/03/19 03:19:15;;;;;;;;;;;9.60;99.90;;;;;;5035294;28;19920;-61
2023/03/19 03:21:41;;;;;;;;;;;9.50;99.90;;;;;;5030084;28;19960;-61
2023/03/19 03:24:08;;;;;;;;;;;9.50;99.90;;;;;;5030737;28;20584;-61
2023/03/19 03:26:37;;;;;;;;;;;9.40;99.90;;;;;;5028725;28;19922;-59
2023/03/19 03:29:04;;;;;;;;;;;9.40;99.90;;;;;;5030073;28;19913;-60
2023/03/19 03:31:29;;;;;;;;;;;9.40;99.90;;;;;;5036506;28;19967;-59
2023/03/19 03:33:54;;;;;;;;;;;9.40;99.90;;;;;;5028356;28;19913;-60
2023/03/19 03:36:20;;;;;;;;;;;9.50;99.90;;;;;;5030699;28;19951;-60
2023/03/19 03:38:45;;;;;;;;;;;9.50;99.90;;;;;;5031632;28;19928;-60
2023/03/19 03:41:11;;;;;;;;;;;9.50;99.90;;;;;;5035470;28;19965;-60
2023/03/19 03:43:36;;;;;;;;;;;9.50;99.90;;;;;;5029617;28;19913;-59
2023/03/19 03:46:02;;;;;;;;;;;9.50;99.90;;;;;;5030437;28;19970;-57
2023/03/19 03:48:27;;;;;;;;;;;9.50;99.90;;;;;;5030212;28;19987;-62
2023/03/19 03:50:53;;;;;;;;;;;9.60;99.90;;;;;;5029667;28;20367;-62
2023/03/19 03:53:18;;;;;;;;;;;9.60;99.90;;;;;;5030503;28;20394;-61
2023/03/19 03:55:44;;;;;;;;;;;9.80;99.90;;;;;;5029161;28;19971;-60
2023/03/19 03:58:11;;;;;;;;;;;9.70;99.90;;;;;;5031288;28;19921;-60
2023/03/19 04:00:37;;;;;;;;;;;9.80;99.90;;;;;;5032383;28;20639;-62
2023/03/19 04:03:03;;;;;;;;;;;9.70;99.90;;;;;;5030167;28;19913;-62
2023/03/19 04:05:28;;;;;;;;;;;9.70;99.90;;;;;;5032906;28;19931;-59
2023/03/19 04:07:54;;;;;;;;;;;9.70;99.90;;;;;;5033342;28;20407;-60
2023/03/19 04:10:20;;;;;;;;;;;9.60;99.90;;;;;;5033628;28;19927;-62
2023/03/19 04:12:46;;;;;;;;;;;9.70;99.90;;;;;;5028195;28;19917;-62
2023/03/19 04:15:12;;;;;;;;;;;9.60;99.90;;;;;;5027803;28;19913;-58
2023/03/19 04:17:39;;;;;;;;;;;9.60;99.90;;;;;;5027389;28;20389;-59
2023/03/19 04:20:06;;;;;;;;;;;9.60;99.90;;;;;;5030456;28;19917;-62
2023/03/19 04:22:32;;;;;;;;;;;9.40;99.90;;;;;;5033739;28;19916;-59
2023/03/19 04:24:57;;;;;;;;;;;9.40;99.90;;;;;;5030255;28;19913;-59
2023/03/19 04:27:23;;;;;;;;;;;9.40;99.90;;;;;;5028851;28;20334;-60
2023/03/19 04:29:48;;;;;;;;;;;9.30;99.90;;;;;;5030080;28;19961;-60
2023/03/19 04:32:14;;;;;;;;;;;9.20;99.90;;;;;;5033437;28;19970;-59
2023/03/19 04:34:40;;;;;;;;;;;9.10;99.90;;;;;;5032599;28;20377;-61
2023/03/19 04:37:09;;;;;;;;;;;9.10;99.90;;;;;;5029807;28;19913;-61
2023/03/19 04:39:34;;;;;;;;;;;9.10;99.90;;;;;;5027659;28;20016;-60
2023/03/19 04:42:00;;;;;;;;;;;9.20;99.90;;;;;;5028785;28;19917;-58
2023/03/19 04:44:25;;;;;;;;;;;9.20;99.90;;;;;;5025046;28;19968;-59
2023/03/19 04:46:51;;;;;;;;;;;9.10;99.90;;;;;;5028896;28;20541;-61
2023/03/19 04:49:16;;;;;;;;;;;9.20;99.90;;;;;;5032127;28;19941;-61
2023/03/19 04:51:42;;;;;;;;;;;9.30;99.90;;;;;;5031320;28;19920;-58
2023/03/19 04:54:07;;;;;;;;;;;9.30;99.90;;;;;;5031203;28;20345;-59
2023/03/19 04:56:33;;;;;;;;;;;9.30;99.90;;;;;;5027746;28;19913;-61
2023/03/19 04:58:58;;;;;;;;;;;9.30;99.90;;;;;;5041811;28;19919;-62
2023/03/19 05:01:24;;;;;;;;;;;9.30;99.90;;;;;;5032091;28;19917;-61
2023/03/19 05:03:50;;;;;;;;;;;9.20;99.90;;;;;;5030467;28;19964;-61
2023/03/19 05:06:18;;;;;;;;;;;9.20;99.90;;;;;;5034522;28;20370;-60
2023/03/19 05:08:44;;;;;;;;;;;9.30;99.90;;;;;;5035117;28;19912;-57
2023/03/19 05:11:10;;;;;;;;;;;9.40;99.90;;;;;;5033998;28;20389;-60
2023/03/19 05:13:35;;;;;;;;;;;9.40;99.90;;;;;;5031802;28;19914;-61
2023/03/19 05:16:01;;;;;;;;;;;9.40;99.90;;;;;;5033819;28;20008;-59
2023/03/19 05:18:28;;;;;;;;;;;9.50;99.90;;;;;;5037649;28;19913;-59
2023/03/19 05:20:54;;;;;;;;;;;9.50;99.90;;;;;;5030421;28;20010;-59
2023/03/19 05:23:19;;;;;;;;;;;9.50;99.90;;;;;;5031239;28;19914;-59
2023/03/19 05:25:45;;;;;;;;;;;9.50;99.90;;;;;;5033585;28;19927;-59
2023/03/19 05:28:11;;;;;;;;;;;9.50;99.90;;;;;;5032929;28;19920;-57
2023/03/19 05:30:36;;;;;;;;;;;9.50;99.90;;;;;;5035663;28;19931;-61
2023/03/19 05:33:02;;;;;;;;;;;9.60;99.90;;;;;;5038529;28;19913;-59
2023/03/19 05:35:29;;;;;;;;;;;9.60;99.90;;;;;;5032473;28;20387;-59
2023/03/19 05:37:54;;;;;;;;;;;9.70;99.90;;;;;;5029468;28;19995;-59
2023/03/19 05:40:21;;;;;;;;;;;9.70;99.90;;;;;;5032234;28;20012;-56
2023/03/19 05:42:46;;;;;;;;;;;9.70;99.90;;;;;;5030281;28;19928;-61
2023/03/19 05:45:12;;;;;;;;;;;9.60;99.90;;;;;;5032450;28;20408;-61
2023/03/19 05:47:38;;;;;;;;;;;9.60;99.90;;;;;;5030109;28;19913;-60
2023/03/19 05:50:04;;;;;;;;;;;9.60;99.90;;;;;;5028367;28;19913;-59
2023/03/19 05:52:29;;;;;;;;;;;9.60;99.90;;;;;;5030132;28;19913;-58
2023/03/19 05:54:55;;;;;;;;;;;9.50;99.90;;;;;;5031463;28;19924;-57
2023/03/19 05:57:20;;;;;;;;;;;9.50;99.90;;;;;;5031767;28;19956;-59
2023/03/19 05:59:46;;;;;;;;;;;9.60;99.90;;;;;;5033387;28;19958;-61
2023/03/19 06:02:12;;;;;;;;;;;9.60;99.90;;;;;;5033530;28;19921;-60
2023/03/19 06:04:37;;;;;;;;;;;9.60;99.90;;;;;;5031189;28;19924;-60
2023/03/19 06:07:03;;;;;;;;;;;9.60;99.90;;;;;;5032106;28;19924;-61
2023/03/19 06:09:28;;;;;;;;;;;9.70;99.90;;;;;;5033884;28;19967;-60
2023/03/19 06:11:54;;;;;;;;;;;9.80;99.90;;;;;;5031597;28;20334;-60
2023/03/19 06:14:19;;;;;;;;;;;9.80;99.90;;;;;;5029786;28;19925;-59
2023/03/19 06:16:44;;;;;;;;;;;9.80;99.90;;;;;;5032031;28;19954;-61
2023/03/19 06:19:10;;;;;;;;;;;9.90;99.90;;;;;;5032527;28;19914;-60
2023/03/19 06:21:36;;;;;;;;;;;10.00;99.90;;;;;;5030015;28;19913;-58
2023/03/19 06:24:01;;;;;;;;;;;10.00;99.90;;;;;;5029606;28;19956;-61
2023/03/19 06:26:27;;;;;;;;;;;10.10;99.90;;;;;;5033531;28;19916;-59
2023/03/19 06:28:52;;;;;;;;;;;10.10;99.90;;;;;;5029975;28;19917;-61
2023/03/19 06:31:18;;;;;;;;;;;10.20;99.90;;;;;;5032140;28;19971;-61
2023/03/19 06:33:43;;;;;;;;;;;10.20;99.90;;;;;;5034078;28;20008;-60
2023/03/19 06:36:09;;;;;;;;;;;10.30;99.90;;;;;;5035675;28;19913;-58
2023/03/19 06:38:35;;;;;;;;;;;10.30;99.90;;;;;;5034299;28;20431;-61
2023/03/19 06:41:01;;;;;;;;;;;10.40;99.90;;;;;;5028068;28;19913;-61
2023/03/19 06:43:26;;;;;;;;;;;10.40;99.90;;;;;;5034018;28;19940;-58
2023/03/19 06:45:52;;;;;;;;;;;10.40;99.90;;;;;;5033033;28;19917;-57
2023/03/19 06:48:18;;;;;;;;;;;10.50;99.90;;;;;;5036299;28;19917;-57
2023/03/19 06:50:46;;;;;;;;;;;10.50;99.90;;;;;;5031805;28;20395;-61
2023/03/19 06:53:12;;;;;;;;;;;10.50;99.90;;;;;;5028856;28;19913;-56
2023/03/19 06:55:38;;;;;;;;;;;10.60;99.90;;;;;;5031908;28;20379;-60
2023/03/19 06:58:04;;;;;;;;;;;10.70;99.90;;;;;;5029180;28;19917;-61
2023/03/19 07:00:30;;;;;;;;;;;10.70;99.90;;;;;;5032620;28;20441;-59
2023/03/19 07:02:55;;;;;;;;;;;10.80;99.90;;;;;;5032143;28;19913;-60
2023/03/19 07:05:21;;;;;;;;;;;10.80;99.90;;;;;;5031396;28;19948;-59
2023/03/19 07:07:46;;;;;;;;;;;10.80;99.90;;;;;;5029022;28;20433;-60
2023/03/19 07:10:12;;;;;;;;;;;10.80;99.90;;;;;;5032239;28;19979;-56
2023/03/19 07:12:38;;;;;;;;;;;10.90;99.90;;;;;;5031925;28;20383;-61
2023/03/19 07:15:03;;;;;;;;;;;10.90;99.90;;;;;;5033172;28;19913;-60
2023/03/19 07:17:29;;;;;;;;;;;10.90;99.90;;;;;;5031388;28;20294;-59
2023/03/19 07:19:54;;;;;;;;;;;10.90;99.90;;;;;;5030866;28;19917;-60
2023/03/19 07:22:20;;;;;;;;;;;10.90;99.90;;;;;;5032992;28;20374;-58
2023/03/19 07:24:46;;;;;;;;;;;11.00;99.90;;;;;;5031838;28;19993;-59
2023/03/19 07:27:11;;;;;;;;;;;11.00;99.90;;;;;;5026533;28;20012;-60
2023/03/19 07:29:37;;;;;;;;;;;11.00;99.90;;;;;;5031506;28;19956;-59
2023/03/19 07:32:02;;;;;;;;;;;11.10;99.90;;;;;;5036156;28;19999;-60
2023/03/19 07:34:28;;;;;;;;;;;11.10;99.90;;;;;;5023708;28;19925;-62
2023/03/19 07:36:53;;;;;;;;;;;11.20;99.90;;;;;;5027591;28;19921;-61
2023/03/19 07:39:19;;;;;;;;;;;11.30;99.90;;;;;;5031995;28;19963;-59
2023/03/19 07:41:47;;;;;;;;;;;11.40;99.90;;;;;;5030782;28;19963;-58
2023/03/19 07:44:13;;;;;;;;;;;11.50;99.90;;;;;;5034186;28;20402;-61
2023/03/19 07:46:38;;;;;;;;;;;11.50;99.90;;;;;;5012266;28;19917;-61
2023/03/19 07:49:04;;;;;;;;;;;11.50;99.90;;;;;;5028620;28;19932;-61
2023/03/19 07:51:30;;;;;;;;;;;11.60;99.90;;;;;;5029067;28;19917;-61
2023/03/19 07:53:55;;;;;;;;;;;11.60;99.90;;;;;;5033536;28;19917;-61
2023/03/19 07:56:21;;;;;;;;;;;11.60;99.90;;;;;;5026296;28;19921;-63
2023/03/19 07:58:46;;;;;;;;;;;11.70;99.90;;;;;;5028448;28;19968;-63
2023/03/19 08:01:12;;;;;;;;;;;11.80;99.90;;;;;;5030128;28;19995;-61
2023/03/19 08:03:38;;;;;;;;;;;11.80;99.90;;;;;;5028432;28;20359;-61
2023/03/19 08:06:04;;;;;;;;;;;11.80;99.90;;;;;;5031369;28;19923;-61
2023/03/19 08:08:29;;;;;;;;;;;11.90;99.90;;;;;;5033333;28;20008;-61
2023/03/19 08:10:55;;;;;;;;;;;12.00;99.90;;;;;;5031657;28;19921;-60
2023/03/19 08:13:21;;;;;;;;;;;12.10;99.90;;;;;;5025219;28;20589;-60
2023/03/19 08:15:48;;;;;;;;;;;12.20;99.90;;;;;;5033441;28;20446;-61
2023/03/19 08:18:13;;;;;;;;;;;12.30;99.90;;;;;;5031819;28;19999;-60
2023/03/19 08:20:39;;;;;;;;;;;12.40;99.90;;;;;;5031576;28;19996;-62
2023/03/19 08:23:04;;;;;;;;;;;12.60;99.90;;;;;;5028708;28;19913;-61
2023/03/19 08:25:31;;;;;;;;;;;12.70;99.90;;;;;;5029476;28;19999;-63
2023/03/19 08:27:57;;;;;;;;;;;12.80;99.90;;;;;;5025683;28;19967;-63
2023/03/19 08:30:23;;;;;;;;;;;12.90;99.90;;;;;;5028451;28;19925;-63
2023/03/19 08:32:49;;;;;;;;;;;12.90;99.90;;;;;;5034047;28;20012;-60
2023/03/19 08:35:15;;;;;;;;;;;13.00;99.90;;;;;;5031282;28;19917;-62
2023/03/19 08:37:40;;;;;;;;;;;13.10;99.90;;;;;;5028654;28;19921;-62
2023/03/19 08:40:06;;;;;;;;;;;13.10;99.90;;;;;;5033631;28;19920;-62
2023/03/19 08:42:32;;;;;;;;;;;13.10;99.90;;;;;;5032269;28;19998;-63
2023/03/19 08:44:57;;;;;;;;;;;13.10;99.90;;;;;;5034738;28;19913;-62
2023/03/19 08:47:23;;;;;;;;;;;13.20;99.90;;;;;;5034940;28;19924;-63
2023/03/19 08:49:51;;;;;;;;;;;13.20;99.90;;;;;;5031513;28;19913;-62
2023/03/19 08:52:18;;;;;;;;;;;13.30;99.90;;;;;;5033470;28;19980;-61
2023/03/19 08:54:43;;;;;;;;;;;13.30;99.90;;;;;;5031748;28;19919;-60
2023/03/19 08:57:09;;;;;;;;;;;13.30;99.90;;;;;;5036243;28;20283;-59
2023/03/19 08:59:34;;;;;;;;;;;13.30;99.90;;;;;;5035105;28;19917;-60
2023/03/19 09:02:00;;;;;;;;;;;13.30;99.90;;;;;;5033633;28;19920;-59
2023/03/19 09:04:25;;;;;;;;;;;13.30;99.90;;;;;;5034999;28;20392;-60
2023/03/19 09:06:51;;;;;;;;;;;13.30;99.90;;;;;;5034370;28;20341;-60
2023/03/19 09:09:17;;;;;;;;;;;13.40;99.90;;;;;;5031529;28;19917;-61
2023/03/19 09:11:43;;;;;;;;;;;13.50;99.90;;;;;;5032437;28;19944;-60
2023/03/19 09:14:10;;;;;;;;;;;13.60;99.90;;;;;;5033615;28;19953;-60
2023/03/19 09:16:35;;;;;;;;;;;13.50;99.90;;;;;;5026643;28;19913;-59
2023/03/19 09:19:01;;;;;;;;;;;13.60;99.90;;;;;;5034031;28;19913;-58
2023/03/19 09:21:26;;;;;;;;;;;13.60;99.90;;;;;;5024658;28;20366;-61
2023/03/19 09:23:52;;;;;;;;;;;13.60;99.90;;;;;;5034766;28;19917;-61
2023/03/19 09:26:17;;;;;;;;;;;13.60;99.90;;;;;;5011650;28;19918;-60
2023/03/19 09:28:43;;;;;;;;;;;13.60;99.90;;;;;;5038852;28;19913;-61
2023/03/19 09:31:08;;;;;;;;;;;13.60;99.90;;;;;;5033505;28;20398;-61
2023/03/19 09:33:34;;;;;;;;;;;13.70;99.90;;;;;;5032674;28;19920;-63
2023/03/19 09:36:00;;;;;;;;;;;13.80;99.90;;;;;;5030511;28;20929;-61
2023/03/19 09:38:27;;;;;;;;;;;13.80;99.90;;;;;;5023436;28;19920;-62
2023/03/19 09:40:58;;;;;;;;;;;13.80;99.90;;;;;;5027495;28;19997;-60
2023/03/19 09:43:39;;;;;;;;;;;13.70;99.90;;;;;;5043502;28;20036;-62
2023/03/19 09:46:10;;;;;;;;;;;13.70;99.90;;;;;;5031828;28;20004;-60
2023/03/19 09:48:41;;;;;;;;;;;13.60;99.90;;;;;;5017186;28;19921;-60
2023/03/19 09:51:11;;;;;;;;;;;13.60;99.90;;;;;;5027091;28;19962;-60
2023/03/19 09:53:56;;;;;;;;;;;13.60;99.90;;;;;;5028956;28;19943;-61
2023/03/19 09:56:23;;;;;;;;;;;13.70;99.90;;;;;;5028446;28;19917;-60
2023/03/19 09:58:49;;;;;;;;;;;13.70;99.90;;;;;;5028139;28;19924;-61
2023/03/19 10:01:21;;;;;;;;;;;13.90;99.90;;;;;;5035350;28;19917;-60
2023/03/19 10:04:05;;;;;;;;;;;14.00;99.90;;;;;;5029932;28;19943;-62
2023/03/19 10:06:38;;;;;;;;;;;14.10;99.90;;;;;;5036728;28;20383;-63
2023/03/19 10:09:19;;;;;;;;;;;14.10;99.90;;;;;;5031092;28;19916;-62
2023/03/19 10:12:02;;;;;;;;;;;14.10;99.90;;;;;;5025962;28;19920;-62
2023/03/19 10:14:46;;;;;;;;;;;14.20;99.90;;;;;;5031082;28;19913;-62
2023/03/19 10:17:15;;;;;;;;;;;14.20;99.90;;;;;;5034224;28;20528;-60
2023/03/19 10:19:44;;;;;;;;;;;14.10;99.90;;;;;;5029272;28;19913;-61
2023/03/19 10:22:13;;;;;;;;;;;14.00;99.90;;;;;;5033491;28;20004;-61
2023/03/19 10:24:43;;;;;;;;;;;14.00;99.90;;;;;;5025608;28;19909;-61
2023/03/19 10:27:19;;;;;;;;;;;14.00;99.90;;;;;;5030019;28;20332;-61
2023/03/19 10:29:45;;;;;;;;;;;14.10;99.90;;;;;;5033361;28;19913;-61
2023/03/19 10:32:17;;;;;;;;;;;14.10;99.90;;;;;;5033115;28;19910;-61
2023/03/19 10:34:54;;;;;;;;;;;14.20;99.90;;;;;;5033243;28;20388;-61
2023/03/19 10:37:22;;;;;;;;;;;14.30;99.90;;;;;;5027087;28;19940;-63
2023/03/19 10:39:49;;;;;;;;;;;14.40;99.90;;;;;;5027550;28;20511;-61
2023/03/19 10:42:17;;;;;;;;;;;14.50;99.90;;;;;;5021639;28;20274;-61
2023/03/19 10:44:47;;;;;;;;;;;14.60;99.90;;;;;;5030897;28;19921;-60
2023/03/19 10:47:13;;;;;;;;;;;14.50;99.90;;;;;;5030300;28;19935;-61
2023/03/19 10:49:39;;;;;;;;;;;14.50;99.90;;;;;;5032367;28;19913;-62
2023/03/19 10:52:15;;;;;;;;;;;14.60;99.90;;;;;;5024212;28;19928;-62
2023/03/19 10:54:42;;;;;;;;;;;14.70;99.90;;;;;;5026003;28;21168;-59
2023/03/19 10:57:19;;;;;;;;;;;14.70;99.90;;;;;;5036314;28;19909;-61
2023/03/19 10:59:45;;;;;;;;;;;14.90;99.90;;;;;;5034358;28;19932;-59
2023/03/19 11:02:22;;;;;;;;;;;14.90;99.90;;;;;;5025157;28;19967;-62
2023/03/19 11:04:48;;;;;;;;;;;15.10;99.90;;;;;;5031166;28;19914;-62
2023/03/19 11:07:17;;;;;;;;;;;15.10;99.90;;;;;;5030274;28;19913;-63
2023/03/19 11:09:45;;;;;;;;;;;15.00;99.90;;;;;;5025094;28;19910;-60
2023/03/19 11:12:13;;;;;;;;;;;15.00;99.90;;;;;;5032433;28;20014;-62
2023/03/19 11:14:43;;;;;;;;;;;15.00;99.90;;;;;;5034171;28;20390;-62
2023/03/19 11:17:16;;;;;;;;;;;14.90;99.90;;;;;;5031290;28;19905;-59
2023/03/19 11:19:47;;;;;;;;;;;15.00;99.90;;;;;;5029096;28;19956;-60
2023/03/19 11:22:19;;;;;;;;;;;15.10;99.90;;;;;;5030223;28;19916;-61
2023/03/19 11:24:55;;;;;;;;;;;15.20;99.90;;;;;;5026830;28;19920;-62
2023/03/19 11:27:32;;;;;;;;;;;15.20;99.90;;;;;;5027707;28;19932;-61
2023/03/19 11:29:58;;;;;;;;;;;15.30;99.90;;;;;;5032283;28;20347;-62
2023/03/19 11:32:24;;;;;;;;;;;15.50;99.90;;;;;;5027997;28;19905;-61
2023/03/19 11:34:49;;;;;;;;;;;15.80;99.90;;;;;;5029429;28;19928;-60
2023/03/19 11:37:14;;;;;;;;;;;16.00;99.90;;;;;;5041906;28;20366;-63
2023/03/19 11:39:57;;;;;;;;;;;15.70;99.90;;;;;;5031063;28;19909;-62
2023/03/19 11:42:32;;;;;;;;;;;15.50;99.90;;;;;;5031421;28;19921;-60
2023/03/19 11:45:00;;;;;;;;;;;15.30;99.90;;;;;;5032452;28;19966;-61
2023/03/19 11:47:31;;;;;;;;;;;15.30;99.90;;;;;;5048765;28;19923;-61
2023/03/19 11:50:04;;;;;;;;;;;15.30;99.90;;;;;;5017106;28;19921;-56
2023/03/19 11:52:48;;;;;;;;;;;15.30;99.90;;;;;;5027809;28;19921;-61
2023/03/19 11:55:21;;;;;;;;;;;15.80;99.90;;;;;;5027796;28;19921;-61
2023/03/19 11:58:01;;;;;;;;;;;16.50;99.90;;;;;;5026728;28;19905;-61
2023/03/19 12:00:30;;;;;;;;;;;16.70;99.90;;;;;;5026334;28;19957;-63
2023/03/19 12:02:56;;;;;;;;;;;;;;;;;;5021110;28;20371;-62
2023/03/19 12:05:34;;;;;;;;;;;17.40;99.90;;;;;;5029904;28;19920;-62
2023/03/19 12:07:59;;;;;;;;;;;;;;;;;;5031755;28;19921;-62
2023/03/19 12:10:25;;;;;;;;;;;;;;;;;;5024384;28;19988;-63
2023/03/19 12:12:51;;;;;;;;;;;;;;;;;;5026054;28;19909;-61
2023/03/19 12:15:25;;;;;;;;;;;17.30;99.90;;;;;;5028394;28;19918;-63
2023/03/19 12:17:59;;;;;;;;;;;17.10;99.90;;;;;;5029327;28;19909;-63
2023/03/19 12:20:33;;;;;;;;;;;16.60;99.90;;;;;;5028625;28;19996;-62
2023/03/19 12:23:25;;;;;;;;;;;16.00;99.90;;;;;;5028118;28;20012;-61
2023/03/19 12:26:07;;;;;;;;;;;15.80;99.90;;;;;;5031350;28;19956;-61
2023/03/19 12:28:45;;;;;;;;;;;15.50;99.90;;;;;;5030677;28;19909;-60
2023/03/19 12:31:17;;;;;;;;;;;15.70;99.90;;;;;;5021911;28;19909;-60
2023/03/19 12:33:53;;;;;;;;;;;15.50;99.90;;;;;;5027408;28;19909;-61
2023/03/19 12:36:27;;;;;;;;;;;15.70;99.90;;;;;;5032655;28;20003;-61
2023/03/19 12:38:57;;;;;;;;;;;15.80;99.90;;;;;;5028259;28;19920;-60
2023/03/19 12:41:30;;;;;;;;;;;15.90;99.90;;;;;;5025190;28;19952;-62
2023/03/19 12:44:08;;;;;;;;;;;16.10;99.90;;;;;;5025655;28;20008;-62
2023/03/19 12:46:47;;;;;;;;;;;16.20;99.90;;;;;;5022620;28;19939;-62
2023/03/19 12:49:35;;;;;;;;;;;16.10;99.90;;;;;;5028956;28;19909;-63
2023/03/19 12:52:05;;;;;;;;;;;16.20;99.90;;;;;;5016630;28;19909;-60
2023/03/19 12:54:40;;;;;;;;;;;16.10;99.90;;;;;;5023263;28;19913;-62
2023/03/19 12:57:10;;;;;;;;;;;16.20;99.90;;;;;;5017869;28;19940;-62
2023/03/19 12:59:43;;;;;;;;;;;16.10;99.90;;;;;;5019000;28;19921;-62
2023/03/19 13:02:14;;;;;;;;;;;16.20;99.90;;;;;;5018945;28;20441;-61
2023/03/19 13:04:48;;;;;;;;;;;16.10;99.90;;;;;;5015941;28;19925;-62
2023/03/19 13:07:18;;;;;;;;;;;16.00;99.90;;;;;;5019270;28;19964;-60
2023/03/19 13:10:10;;;;;;;;;;;16.00;99.90;;;;;;5031478;28;19913;-59
2023/03/19 13:12:37;;;;;;;;;;;16.00;99.90;;;;;;5024610;28;19924;-60
2023/03/19 13:15:06;;;;;;;;;;;15.90;99.90;;;;;;5029496;28;19914;-62
2023/03/19 13:17:44;;;;;;;;;;;15.80;99.90;;;;;;5031182;28;19956;-61
2023/03/19 13:20:15;;;;;;;;;;;15.80;99.90;;;;;;5029397;28;19914;-61
2023/03/19 13:22:43;;;;;;;;;;;15.60;99.90;;;;;;5024503;28;19996;-61
2023/03/19 13:25:13;;;;;;;;;;;15.50;99.90;;;;;;5021819;28;19913;-60
2023/03/19 13:27:39;;;;;;;;;;;15.20;99.90;;;;;;5023533;28;19917;-58
2023/03/19 13:30:10;;;;;;;;;;;15.00;99.90;;;;;;5026989;28;19924;-55
2023/03/19 13:32:40;;;;;;;;;;;15.00;99.90;;;;;;5042338;28;19921;-60
2023/03/19 13:35:12;;;;;;;;;;;15.00;99.90;;;;;;5032021;28;20000;-61
2023/03/19 13:37:40;;;;;;;;;;;14.80;99.90;;;;;;5030103;28;19920;-60
2023/03/19 13:40:26;;;;;;;;;;;14.70;99.90;;;;;;5030858;28;19913;-61
2023/03/19 13:42:55;;;;;;;;;;;14.50;99.90;;;;;;5028520;28;19917;-62
2023/03/19 13:45:29;;;;;;;;;;;14.60;99.90;;;;;;5022337;28;19917;-59
2023/03/19 13:47:57;;;;;;;;;;;14.80;99.90;;;;;;5031527;28;19920;-61
2023/03/19 13:50:22;;;;;;;;;;;15.10;99.90;;;;;;5029672;28;19917;-61
2023/03/19 13:52:52;;;;;;;;;;;15.30;99.90;;;;;;5027600;28;20322;-57
2023/03/19 13:55:27;;;;;;;;;;;15.50;99.90;;;;;;5027140;28;20603;-56
2023/03/19 13:58:00;;;;;;;;;;;15.70;99.90;;;;;;5021318;28;20305;-61
2023/03/19 14:00:44;;;;;;;;;;;15.50;99.90;;;;;;5026419;28;20414;-60
2023/03/19 14:03:25;;;;;;;;;;;15.60;99.90;;;;;;5025524;28;19932;-59
2023/03/19 14:05:53;;;;;;;;;;;15.60;99.90;;;;;;5025764;28;19964;-61
2023/03/19 14:08:23;;;;;;;;;;;15.50;99.90;;;;;;5026880;28;19994;-57
2023/03/19 14:10:51;;;;;;;;;;;15.60;99.90;;;;;;5022750;28;19917;-61
2023/03/19 14:13:30;;;;;;;;;;;15.50;99.90;;;;;;5025083;28;19914;-61
2023/03/19 14:16:01;;;;;;;;;;;15.50;99.90;;;;;;5019347;28;20338;-61
2023/03/19 14:18:28;;;;;;;;;;;15.50;99.90;;;;;;5018143;28;19917;-60
2023/03/19 14:20:59;;;;;;;;;;;15.20;99.90;;;;;;5026521;28;20375;-60
2023/03/19 14:23:25;;;;;;;;;;;15.00;99.90;;;;;;5023480;28;19932;-59
2023/03/19 14:25:51;;;;;;;;;;;14.80;99.90;;;;;;5026773;28;19925;-59
2023/03/19 14:28:18;;;;;;;;;;;14.70;99.90;;;;;;5026342;28;19917;-59